sensor_id;sensor_type;location;lat;lon;timestamp;pressure;altitude;pressure_sealevel;temperature;humidity
30873;BME280;17579;42.690;2.586;2023-08-30T00:00:07;96744.69;;;18.45;50.71
30873;BME280;17579;42.690;2.586;2023-08-30T00:02:36;96754.19;;;18.41;50.81
30873;BME280;17579;42.690;2.586;2023-08-30T00:05:04;96764.66;;;18.35;51.34
30873;BME280;17579;42.690;2.586;2023-08-30T00:10:44;96763.44;;;18.38;51.42
30873;BME280;17579;42.690;2.586;2023-08-30T00:13:12;96766.13;;;18.38;51.56
30873;BME280;17579;42.690;2.586;2023-08-30T00:15:38;96767.13;;;18.37;51.55
30873;BME280;17579;42.690;2.586;2023-08-30T00:18:07;96757.28;;;18.38;51.83
30873;BME280;17579;42.690;2.586;2023-08-30T00:20:48;96761.59;;;18.32;51.09
30873;BME280;17579;42.690;2.586;2023-08-30T00:23:16;96755.81;;;18.35;51.94
30873;BME280;17579;42.690;2.586;2023-08-30T00:25:52;96750.03;;;18.31;51.92
30873;BME280;17579;42.690;2.586;2023-08-30T00:28:38;96749.84;;;18.33;52.21
30873;BME280;17579;42.690;2.586;2023-08-30T00:31:22;96743.88;;;18.31;52.06
30873;BME280;17579;42.690;2.586;2023-08-30T00:33:48;96736.06;;;18.29;51.89
30873;BME280;17579;42.690;2.586;2023-08-30T00:36:14;96739.75;;;18.28;52.51
30873;BME280;17579;42.690;2.586;2023-08-30T00:38:51;96738.72;;;18.23;52.02
30873;BME280;17579;42.690;2.586;2023-08-30T00:41:19;96737.50;;;18.25;52.46
30873;BME280;17579;42.690;2.586;2023-08-30T00:43:51;96737.28;;;18.27;52.05
30873;BME280;17579;42.690;2.586;2023-08-30T00:46:32;96733.38;;;18.23;51.98
30873;BME280;17579;42.690;2.586;2023-08-30T00:49:04;96734.22;;;18.23;52.00
30873;BME280;17579;42.690;2.586;2023-08-30T00:54:22;96731.53;;;18.23;52.21
30873;BME280;17579;42.690;2.586;2023-08-30T00:56:48;96724.53;;;18.22;52.32
30873;BME280;17579;42.690;2.586;2023-08-30T00:59:19;96727.81;;;18.17;52.26
30873;BME280;17579;42.690;2.586;2023-08-30T01:01:48;96722.84;;;18.14;52.46
30873;BME280;17579;42.690;2.586;2023-08-30T01:06:59;96724.09;;;18.18;52.18
30873;BME280;17579;42.690;2.586;2023-08-30T01:09:25;96720.81;;;18.16;52.23
30873;BME280;17579;42.690;2.586;2023-08-30T01:14:38;96724.53;;;18.15;52.59
30873;BME280;17579;42.690;2.586;2023-08-30T01:17:07;96717.94;;;18.11;52.59
30873;BME280;17579;42.690;2.586;2023-08-30T01:20:04;96714.22;;;18.06;52.60
30873;BME280;17579;42.690;2.586;2023-08-30T01:25:41;96710.53;;;18.13;53.05
30873;BME280;17579;42.690;2.586;2023-08-30T01:28:14;96708.66;;;18.07;52.95
30873;BME280;17579;42.690;2.586;2023-08-30T01:30:42;96702.91;;;18.10;53.18
30873;BME280;17579;42.690;2.586;2023-08-30T01:33:15;96704.75;;;18.10;52.88
30873;BME280;17579;42.690;2.586;2023-08-30T01:35:43;96702.06;;;18.10;53.12
30873;BME280;17579;42.690;2.586;2023-08-30T01:41:01;96697.94;;;18.07;53.51
30873;BME280;17579;42.690;2.586;2023-08-30T01:43:30;96697.56;;;18.04;53.20
30873;BME280;17579;42.690;2.586;2023-08-30T01:46:12;96701.47;;;18.01;53.45
30873;BME280;17579;42.690;2.586;2023-08-30T01:48:47;96706.41;;;18.04;53.69
30873;BME280;17579;42.690;2.586;2023-08-30T01:51:15;96701.66;;;17.99;54.01
30873;BME280;17579;42.690;2.586;2023-08-30T01:53:43;96704.97;;;18.02;54.29
30873;BME280;17579;42.690;2.586;2023-08-30T01:56:15;96711.97;;;18.03;53.79
30873;BME280;17579;42.690;2.586;2023-08-30T01:58:46;96717.09;;;18.04;54.02
30873;BME280;17579;42.690;2.586;2023-08-30T02:01:12;96710.72;;;18.05;54.36
30873;BME280;17579;42.690;2.586;2023-08-30T02:03:46;96717.31;;;18.03;53.83
30873;BME280;17579;42.690;2.586;2023-08-30T02:06:28;96713.41;;;18.05;54.49
30873;BME280;17579;42.690;2.586;2023-08-30T02:09:03;96701.47;;;18.01;54.50
30873;BME280;17579;42.690;2.586;2023-08-30T02:11:32;96702.47;;;18.00;54.48
30873;BME280;17579;42.690;2.586;2023-08-30T02:14:03;96702.91;;;17.97;54.97
30873;BME280;17579;42.690;2.586;2023-08-30T02:16:46;96690.31;;;17.84;54.53
30873;BME280;17579;42.690;2.586;2023-08-30T02:19:13;96679.22;;;17.80;56.01
30873;BME280;17579;42.690;2.586;2023-08-30T02:21:42;96668.50;;;17.74;56.19
30873;BME280;17579;42.690;2.586;2023-08-30T02:24:09;96660.06;;;17.70;56.50
30873;BME280;17579;42.690;2.586;2023-08-30T02:26:37;96662.72;;;17.63;56.47
30873;BME280;17579;42.690;2.586;2023-08-30T02:29:08;96657.16;;;17.58;56.54
30873;BME280;17579;42.690;2.586;2023-08-30T02:31:40;96657.56;;;17.55;56.51
30873;BME280;17579;42.690;2.586;2023-08-30T02:34:29;96662.13;;;17.55;56.81
30873;BME280;17579;42.690;2.586;2023-08-30T02:37:02;96657.97;;;17.45;56.85
30873;BME280;17579;42.690;2.586;2023-08-30T02:39:40;96657.97;;;17.45;56.81
30873;BME280;17579;42.690;2.586;2023-08-30T02:42:06;96652.81;;;17.44;57.18
30873;BME280;17579;42.690;2.586;2023-08-30T02:44:35;96660.66;;;17.39;56.98
30873;BME280;17579;42.690;2.586;2023-08-30T02:47:00;96661.66;;;17.38;57.33
30873;BME280;17579;42.690;2.586;2023-08-30T02:49:29;96657.94;;;17.32;57.19
30873;BME280;17579;42.690;2.586;2023-08-30T02:51:55;96654.66;;;17.30;57.72
30873;BME280;17579;42.690;2.586;2023-08-30T02:54:25;96653.00;;;17.29;57.64
30873;BME280;17579;42.690;2.586;2023-08-30T02:56:51;96644.38;;;17.27;57.77
30873;BME280;17579;42.690;2.586;2023-08-30T02:59:20;96640.06;;;17.26;57.31
30873;BME280;17579;42.690;2.586;2023-08-30T03:01:45;96643.75;;;17.25;57.61
30873;BME280;17579;42.690;2.586;2023-08-30T03:04:14;96633.88;;;17.25;57.69
30873;BME280;17579;42.690;2.586;2023-08-30T03:07:07;96629.16;;;17.27;57.44
30873;BME280;17579;42.690;2.586;2023-08-30T03:09:33;96627.09;;;17.29;57.79
30873;BME280;17579;42.690;2.586;2023-08-30T03:14:58;96620.75;;;17.30;57.33
30873;BME280;17579;42.690;2.586;2023-08-30T03:17:35;96623.19;;;17.25;57.59
30873;BME280;17579;42.690;2.586;2023-08-30T03:20:03;96632.84;;;17.26;57.78
30873;BME280;17579;42.690;2.586;2023-08-30T03:22:49;96626.91;;;17.24;57.51
30873;BME280;17579;42.690;2.586;2023-08-30T03:25:17;96622.56;;;17.23;58.01
30873;BME280;17579;42.690;2.586;2023-08-30T03:27:48;96624.44;;;17.23;58.05
30873;BME280;17579;42.690;2.586;2023-08-30T03:30:16;96627.31;;;17.21;57.95
30873;BME280;17579;42.690;2.586;2023-08-30T03:32:52;96632.03;;;17.26;57.53
30873;BME280;17579;42.690;2.586;2023-08-30T03:35:18;96628.72;;;17.24;57.60
30873;BME280;17579;42.690;2.586;2023-08-30T03:37:46;96629.78;;;17.23;57.49
30873;BME280;17579;42.690;2.586;2023-08-30T03:40:12;96617.84;;;17.25;57.52
30873;BME280;17579;42.690;2.586;2023-08-30T03:42:38;96620.13;;;17.28;57.68
30873;BME280;17579;42.690;2.586;2023-08-30T03:45:04;96621.97;;;17.28;57.41
30873;BME280;17579;42.690;2.586;2023-08-30T03:47:31;96612.91;;;17.22;57.80
30873;BME280;17579;42.690;2.586;2023-08-30T03:49:59;96615.78;;;17.21;57.60
30873;BME280;17579;42.690;2.586;2023-08-30T03:52:45;96612.28;;;17.13;57.55
30873;BME280;17579;42.690;2.586;2023-08-30T03:55:52;96625.63;;;17.13;57.32
30873;BME280;17579;42.690;2.586;2023-08-30T03:58:19;96621.53;;;17.18;57.65
30873;BME280;17579;42.690;2.586;2023-08-30T04:00:50;96629.53;;;17.11;58.20
30873;BME280;17579;42.690;2.586;2023-08-30T04:03:18;96642.72;;;17.12;57.82
30873;BME280;17579;42.690;2.586;2023-08-30T04:05:43;96649.06;;;17.11;57.85
30873;BME280;17579;42.690;2.586;2023-08-30T04:08:09;96641.06;;;17.11;57.79
30873;BME280;17579;42.690;2.586;2023-08-30T04:11:22;96639.56;;;17.02;57.90
30873;BME280;17579;42.690;2.586;2023-08-30T04:13:50;96642.88;;;17.11;57.83
30873;BME280;17579;42.690;2.586;2023-08-30T04:16:20;96627.25;;;17.08;57.91
30873;BME280;17579;42.690;2.586;2023-08-30T04:18:46;96636.13;;;17.08;57.90
30873;BME280;17579;42.690;2.586;2023-08-30T04:21:35;96633.44;;;17.08;57.78
30873;BME280;17579;42.690;2.586;2023-08-30T04:24:01;96631.19;;;17.05;58.12
30873;BME280;17579;42.690;2.586;2023-08-30T04:26:30;96634.03;;;17.04;57.66
30873;BME280;17579;42.690;2.586;2023-08-30T04:28:59;96628.50;;;17.05;58.11
30873;BME280;17579;42.690;2.586;2023-08-30T04:31:25;96628.69;;;17.04;57.85
30873;BME280;17579;42.690;2.586;2023-08-30T04:33:59;96628.88;;;17.02;57.93
30873;BME280;17579;42.690;2.586;2023-08-30T04:36:28;96637.31;;;16.99;57.68
30873;BME280;17579;42.690;2.586;2023-08-30T04:39:02;96640.63;;;17.01;58.12
30873;BME280;17579;42.690;2.586;2023-08-30T04:41:56;96648.44;;;17.03;57.87
30873;BME280;17579;42.690;2.586;2023-08-30T04:44:24;96645.56;;;17.04;57.69
30873;BME280;17579;42.690;2.586;2023-08-30T04:46:59;96649.44;;;17.02;57.97
30873;BME280;17579;42.690;2.586;2023-08-30T04:49:37;96653.34;;;16.99;57.78
30873;BME280;17579;42.690;2.586;2023-08-30T04:55:19;96656.84;;;17.06;57.50
30873;BME280;17579;42.690;2.586;2023-08-30T04:57:44;96664.06;;;17.06;57.97
30873;BME280;17579;42.690;2.586;2023-08-30T05:00:18;96664.25;;;17.04;57.77
30873;BME280;17579;42.690;2.586;2023-08-30T05:02:49;96662.19;;;17.06;58.01
30873;BME280;17579;42.690;2.586;2023-08-30T05:05:14;96659.72;;;17.05;58.18
30873;BME280;17579;42.690;2.586;2023-08-30T05:07:40;96659.31;;;17.08;58.11
30873;BME280;17579;42.690;2.586;2023-08-30T05:10:08;96662.19;;;17.06;57.70
30873;BME280;17579;42.690;2.586;2023-08-30T05:15:25;96656.06;;;17.12;57.92
30873;BME280;17579;42.690;2.586;2023-08-30T05:17:51;96650.91;;;17.11;57.83
30873;BME280;17579;42.690;2.586;2023-08-30T05:23:08;96661.41;;;17.12;57.82
30873;BME280;17579;42.690;2.586;2023-08-30T05:25:34;96656.06;;;17.12;57.39
30873;BME280;17579;42.690;2.586;2023-08-30T05:27:59;96658.94;;;17.18;57.46
30873;BME280;17579;42.690;2.586;2023-08-30T05:30:28;96660.19;;;17.22;57.16
30873;BME280;17579;42.690;2.586;2023-08-30T05:32:56;96653.22;;;17.27;57.38
30873;BME280;17579;42.690;2.586;2023-08-30T05:35:24;96654.66;;;17.30;56.95
30873;BME280;17579;42.690;2.586;2023-08-30T05:37:52;96656.13;;;17.33;56.93
30873;BME280;17579;42.690;2.586;2023-08-30T05:40:18;96659.41;;;17.35;56.74
30873;BME280;17579;42.690;2.586;2023-08-30T05:42:50;96673.38;;;17.37;56.30
30873;BME280;17579;42.690;2.586;2023-08-30T05:45:18;96661.47;;;17.46;55.85
30873;BME280;17579;42.690;2.586;2023-08-30T05:47:49;96669.91;;;17.49;55.87
30873;BME280;17579;42.690;2.586;2023-08-30T05:50:30;96677.75;;;17.58;55.28
30873;BME280;17579;42.690;2.586;2023-08-30T05:53:02;96679.78;;;17.62;55.08
30873;BME280;17579;42.690;2.586;2023-08-30T05:55:29;96677.13;;;17.69;55.05
30873;BME280;17579;42.690;2.586;2023-08-30T05:57:55;96678.38;;;17.73;55.07
30873;BME280;17579;42.690;2.586;2023-08-30T06:00:24;96684.97;;;17.77;55.07
30873;BME280;17579;42.690;2.586;2023-08-30T06:02:51;96685.19;;;17.76;54.93
30873;BME280;17579;42.690;2.586;2023-08-30T06:05:18;96681.88;;;17.74;55.22
30873;BME280;17579;42.690;2.586;2023-08-30T06:07:49;96693.41;;;17.74;55.12
30873;BME280;17579;42.690;2.586;2023-08-30T06:10:15;96686.63;;;17.72;55.27
30873;BME280;17579;42.690;2.586;2023-08-30T06:12:43;96682.28;;;17.71;55.34
30873;BME280;17579;42.690;2.586;2023-08-30T06:15:24;96688.44;;;17.71;55.46
30873;BME280;17579;42.690;2.586;2023-08-30T06:17:58;96685.38;;;17.74;55.22
30873;BME280;17579;42.690;2.586;2023-08-30T06:20:24;96692.34;;;17.75;55.49
30873;BME280;17579;42.690;2.586;2023-08-30T06:23:02;96694.63;;;17.72;55.57
30873;BME280;17579;42.690;2.586;2023-08-30T06:28:43;96691.75;;;17.87;55.23
30873;BME280;17579;42.690;2.586;2023-08-30T06:31:10;96687.63;;;17.84;55.52
30873;BME280;17579;42.690;2.586;2023-08-30T06:33:41;96691.75;;;17.87;55.54
30873;BME280;17579;42.690;2.586;2023-08-30T06:36:09;96699.00;;;17.99;55.19
30873;BME280;17579;42.690;2.586;2023-08-30T06:38:37;96693.03;;;18.04;55.11
30873;BME280;17579;42.690;2.586;2023-08-30T06:41:23;96699.63;;;18.22;54.91
30873;BME280;17579;42.690;2.586;2023-08-30T06:43:49;96698.75;;;18.41;54.99
30873;BME280;17579;42.690;2.586;2023-08-30T06:46:17;96696.47;;;18.65;54.15
30873;BME280;17579;42.690;2.586;2023-08-30T06:48:43;96699.06;;;18.85;53.64
30873;BME280;17579;42.690;2.586;2023-08-30T06:51:34;96697.19;;;18.99;53.50
30873;BME280;17579;42.690;2.586;2023-08-30T06:54:24;96691.31;;;19.22;52.86
30873;BME280;17579;42.690;2.586;2023-08-30T06:59:19;96694.06;;;19.47;52.68
30873;BME280;17579;42.690;2.586;2023-08-30T07:01:44;96695.22;;;19.58;52.66
30873;BME280;17579;42.690;2.586;2023-08-30T07:04:12;96694.38;;;19.64;52.99
30873;BME280;17579;42.690;2.586;2023-08-30T07:07:02;96696.38;;;19.76;52.63
30873;BME280;17579;42.690;2.586;2023-08-30T07:09:42;96696.88;;;19.91;52.56
30873;BME280;17579;42.690;2.586;2023-08-30T07:12:10;96697.25;;;20.01;52.31
30873;BME280;17579;42.690;2.586;2023-08-30T07:14:39;96695.69;;;20.12;52.27
30873;BME280;17579;42.690;2.586;2023-08-30T07:17:10;96689.16;;;20.27;51.70
30873;BME280;17579;42.690;2.586;2023-08-30T07:19:49;96693.66;;;20.33;51.51
30873;BME280;17579;42.690;2.586;2023-08-30T07:22:15;96690.63;;;20.48;51.43
30873;BME280;17579;42.690;2.586;2023-08-30T07:24:49;96695.03;;;20.60;51.30
30873;BME280;17579;42.690;2.586;2023-08-30T07:27:21;96697.56;;;20.81;51.23
30873;BME280;17579;42.690;2.586;2023-08-30T07:29:47;96691.78;;;20.96;50.80
30873;BME280;17579;42.690;2.586;2023-08-30T07:32:13;96687.25;;;20.96;50.60
30873;BME280;17579;42.690;2.586;2023-08-30T07:34:56;96693.28;;;20.73;51.49
30873;BME280;17579;42.690;2.586;2023-08-30T07:37:31;96696.19;;;20.71;50.64
30873;BME280;17579;42.690;2.586;2023-08-30T07:40:23;96689.78;;;20.72;51.29
30873;BME280;17579;42.690;2.586;2023-08-30T07:43:14;96690.28;;;21.00;50.49
30873;BME280;17579;42.690;2.586;2023-08-30T07:45:40;96686.91;;;21.04;50.19
30873;BME280;17579;42.690;2.586;2023-08-30T07:48:10;96694.63;;;21.19;49.77
30873;BME280;17579;42.690;2.586;2023-08-30T07:50:43;96688.19;;;21.51;49.30
30873;BME280;17579;42.690;2.586;2023-08-30T07:53:09;96692.47;;;21.70;48.85
30873;BME280;17579;42.690;2.586;2023-08-30T07:55:38;96689.56;;;21.84;48.85
30873;BME280;17579;42.690;2.586;2023-08-30T07:58:07;96697.25;;;22.10;48.61
30873;BME280;17579;42.690;2.586;2023-08-30T08:03:22;96697.16;;;22.29;48.48
30873;BME280;17579;42.690;2.586;2023-08-30T08:05:50;96699.41;;;22.44;47.78
30873;BME280;17579;42.690;2.586;2023-08-30T08:08:16;96701.50;;;22.54;47.57
30873;BME280;17579;42.690;2.586;2023-08-30T08:10:42;96703.84;;;22.62;47.71
30873;BME280;17579;42.690;2.586;2023-08-30T08:13:08;96703.47;;;22.82;47.35
30873;BME280;17579;42.690;2.586;2023-08-30T08:15:34;96708.16;;;22.87;46.74
30873;BME280;17579;42.690;2.586;2023-08-30T08:18:03;96708.75;;;22.89;47.07
30873;BME280;17579;42.690;2.586;2023-08-30T08:20:52;96725.63;;;22.96;46.99
30873;BME280;17579;42.690;2.586;2023-08-30T08:23:36;96719.34;;;23.07;46.29
30873;BME280;17579;42.690;2.586;2023-08-30T08:26:04;96717.63;;;23.01;46.49
30873;BME280;17579;42.690;2.586;2023-08-30T08:28:59;96720.78;;;23.10;46.09
30873;BME280;17579;42.690;2.586;2023-08-30T08:31:43;96719.41;;;22.95;45.88
30873;BME280;17579;42.690;2.586;2023-08-30T08:34:12;96724.94;;;22.89;46.54
30873;BME280;17579;42.690;2.586;2023-08-30T08:39:36;96718.59;;;22.71;46.68
30873;BME280;17579;42.690;2.586;2023-08-30T08:42:02;96732.91;;;22.72;46.53
30873;BME280;17579;42.690;2.586;2023-08-30T08:44:31;96731.84;;;22.73;46.98
30873;BME280;17579;42.690;2.586;2023-08-30T08:47:38;96734.31;;;22.86;47.23
30873;BME280;17579;42.690;2.586;2023-08-30T08:50:05;96731.59;;;22.98;46.21
30873;BME280;17579;42.690;2.586;2023-08-30T08:52:31;96730.88;;;23.02;46.40
30873;BME280;17579;42.690;2.586;2023-08-30T08:55:08;96736.38;;;23.08;46.06
30873;BME280;17579;42.690;2.586;2023-08-30T08:57:34;96736.63;;;23.06;46.48
30873;BME280;17579;42.690;2.586;2023-08-30T09:00:24;96732.16;;;23.00;46.67
30873;BME280;17579;42.690;2.586;2023-08-30T09:02:53;96726.16;;;23.10;45.96
30873;BME280;17579;42.690;2.586;2023-08-30T09:05:37;96728.41;;;23.01;46.70
30873;BME280;17579;42.690;2.586;2023-08-30T09:08:11;96730.53;;;23.11;45.60
30873;BME280;17579;42.690;2.586;2023-08-30T09:10:38;96722.09;;;23.19;45.61
30873;BME280;17579;42.690;2.586;2023-08-30T09:13:07;96724.78;;;23.19;45.96
30873;BME280;17579;42.690;2.586;2023-08-30T09:15:33;96720.63;;;23.28;45.72
30873;BME280;17579;42.690;2.586;2023-08-30T09:18:02;96720.16;;;23.31;45.04
30873;BME280;17579;42.690;2.586;2023-08-30T09:20:28;96716.41;;;23.32;45.12
30873;BME280;17579;42.690;2.586;2023-08-30T09:22:54;96718.28;;;23.32;45.45
30873;BME280;17579;42.690;2.586;2023-08-30T09:25:40;96719.78;;;23.40;45.03
30873;BME280;17579;42.690;2.586;2023-08-30T09:28:40;96720.03;;;23.38;46.21
30873;BME280;17579;42.690;2.586;2023-08-30T09:31:19;96719.72;;;23.51;45.27
30873;BME280;17579;42.690;2.586;2023-08-30T09:33:46;96717.44;;;23.43;44.47
30873;BME280;17579;42.690;2.586;2023-08-30T09:36:13;96722.22;;;23.41;44.78
30873;BME280;17579;42.690;2.586;2023-08-30T09:38:39;96710.72;;;23.46;45.07
30873;BME280;17579;42.690;2.586;2023-08-30T09:41:09;96705.19;;;23.52;45.15
30873;BME280;17579;42.690;2.586;2023-08-30T09:43:42;96703.88;;;23.55;45.37
30873;BME280;17579;42.690;2.586;2023-08-30T09:46:11;96694.81;;;23.61;44.49
30873;BME280;17579;42.690;2.586;2023-08-30T09:48:39;96700.56;;;23.65;44.10
30873;BME280;17579;42.690;2.586;2023-08-30T09:51:08;96700.06;;;23.68;44.11
30873;BME280;17579;42.690;2.586;2023-08-30T09:53:47;96690.75;;;23.76;44.47
30873;BME280;17579;42.690;2.586;2023-08-30T09:56:20;96708.19;;;23.85;43.41
30873;BME280;17579;42.690;2.586;2023-08-30T09:58:58;96697.00;;;23.93;44.27
30873;BME280;17579;42.690;2.586;2023-08-30T10:01:26;96695.56;;;24.02;44.29
30873;BME280;17579;42.690;2.586;2023-08-30T10:03:56;96697.75;;;24.06;44.17
30873;BME280;17579;42.690;2.586;2023-08-30T10:06:27;96680.91;;;24.15;43.90
30873;BME280;17579;42.690;2.586;2023-08-30T10:12:03;96675.56;;;24.20;43.72
30873;BME280;17579;42.690;2.586;2023-08-30T10:14:29;96682.72;;;24.27;44.02
30873;BME280;17579;42.690;2.586;2023-08-30T10:17:03;96678.25;;;24.37;43.65
30873;BME280;17579;42.690;2.586;2023-08-30T10:19:30;96682.00;;;24.53;43.83
30873;BME280;17579;42.690;2.586;2023-08-30T10:22:03;96678.16;;;24.66;43.16
30873;BME280;17579;42.690;2.586;2023-08-30T10:27:47;96668.34;;;24.82;42.79
30873;BME280;17579;42.690;2.586;2023-08-30T10:30:15;96657.88;;;24.86;42.67
30873;BME280;17579;42.690;2.586;2023-08-30T10:32:43;96665.47;;;24.89;42.53
30873;BME280;17579;42.690;2.586;2023-08-30T10:35:18;96659.25;;;24.88;42.11
30873;BME280;17579;42.690;2.586;2023-08-30T10:37:55;96662.34;;;24.97;42.35
30873;BME280;17579;42.690;2.586;2023-08-30T10:40:21;96655.41;;;25.06;41.64
30873;BME280;17579;42.690;2.586;2023-08-30T10:45:37;96656.59;;;25.16;41.88
30873;BME280;17579;42.690;2.586;2023-08-30T10:48:06;96651.75;;;25.18;42.15
30873;BME280;17579;42.690;2.586;2023-08-30T10:50:34;96660.22;;;25.27;41.53
30873;BME280;17579;42.690;2.586;2023-08-30T10:53:00;96649.13;;;25.28;41.65
30873;BME280;17579;42.690;2.586;2023-08-30T10:55:36;96652.69;;;25.29;41.51
30873;BME280;17579;42.690;2.586;2023-08-30T10:58:22;96646.28;;;25.35;41.34
30873;BME280;17579;42.690;2.586;2023-08-30T11:00:56;96645.38;;;25.29;41.78
30873;BME280;17579;42.690;2.586;2023-08-30T11:03:22;96647.06;;;25.35;41.47
30873;BME280;17579;42.690;2.586;2023-08-30T11:05:48;96640.53;;;25.31;41.47
30873;BME280;17579;42.690;2.586;2023-08-30T11:08:18;96633.81;;;25.34;41.60
30873;BME280;17579;42.690;2.586;2023-08-30T11:10:45;96635.75;;;25.38;41.19
30873;BME280;17579;42.690;2.586;2023-08-30T11:13:17;96633.59;;;25.40;41.17
30873;BME280;17579;42.690;2.586;2023-08-30T11:15:42;96638.34;;;25.55;41.42
30873;BME280;17579;42.690;2.586;2023-08-30T11:18:08;96628.97;;;25.68;41.15
30873;BME280;17579;42.690;2.586;2023-08-30T11:20:59;96627.47;;;25.77;40.81
30873;BME280;17579;42.690;2.586;2023-08-30T11:26:30;96634.28;;;25.85;40.36
30873;BME280;17579;42.690;2.586;2023-08-30T11:28:56;96622.13;;;25.88;40.32
30873;BME280;17579;42.690;2.586;2023-08-30T11:31:36;96615.66;;;25.94;40.32
30873;BME280;17579;42.690;2.586;2023-08-30T11:34:22;96616.31;;;26.06;40.30
30873;BME280;17579;42.690;2.586;2023-08-30T11:36:51;96621.22;;;26.09;39.52
30873;BME280;17579;42.690;2.586;2023-08-30T11:39:19;96619.38;;;26.15;39.46
30873;BME280;17579;42.690;2.586;2023-08-30T11:42:24;96611.75;;;26.12;39.33
30873;BME280;17579;42.690;2.586;2023-08-30T11:45:04;96618.47;;;26.04;40.09
30873;BME280;17579;42.690;2.586;2023-08-30T11:47:41;96617.66;;;26.04;39.58
30873;BME280;17579;42.690;2.586;2023-08-30T11:50:19;96629.56;;;26.03;39.32
30873;BME280;17579;42.690;2.586;2023-08-30T11:52:47;96625.53;;;26.05;39.09
30873;BME280;17579;42.690;2.586;2023-08-30T11:55:15;96629.63;;;26.13;39.69
30873;BME280;17579;42.690;2.586;2023-08-30T11:57:51;96625.09;;;26.24;40.15
30873;BME280;17579;42.690;2.586;2023-08-30T12:00:25;96621.66;;;26.34;39.46
30873;BME280;17579;42.690;2.586;2023-08-30T12:02:51;96617.31;;;26.33;39.01
30873;BME280;17579;42.690;2.586;2023-08-30T12:05:19;96615.94;;;26.30;39.27
30873;BME280;17579;42.690;2.586;2023-08-30T12:07:48;96636.81;;;26.30;39.44
30873;BME280;17579;42.690;2.586;2023-08-30T12:10:18;96620.81;;;26.33;39.31
30873;BME280;17579;42.690;2.586;2023-08-30T12:12:45;96617.06;;;26.39;39.26
30873;BME280;17579;42.690;2.586;2023-08-30T12:15:12;96625.16;;;26.34;38.96
30873;BME280;17579;42.690;2.586;2023-08-30T12:17:48;96623.78;;;26.26;39.13
30873;BME280;17579;42.690;2.586;2023-08-30T12:20:15;96607.84;;;26.35;38.53
30873;BME280;17579;42.690;2.586;2023-08-30T12:26:31;96607.47;;;26.21;39.41
30873;BME280;17579;42.690;2.586;2023-08-30T12:29:01;96613.25;;;26.35;39.13
30873;BME280;17579;42.690;2.586;2023-08-30T12:31:28;96609.44;;;26.31;38.80
30873;BME280;17579;42.690;2.586;2023-08-30T12:33:58;96621.09;;;26.32;39.51
30873;BME280;17579;42.690;2.586;2023-08-30T12:36:26;96598.38;;;26.43;39.55
30873;BME280;17579;42.690;2.586;2023-08-30T12:38:52;96614.69;;;26.53;38.46
30873;BME280;17579;42.690;2.586;2023-08-30T12:41:18;96618.19;;;26.49;38.91
30873;BME280;17579;42.690;2.586;2023-08-30T12:43:51;96608.19;;;26.54;39.34
30873;BME280;17579;42.690;2.586;2023-08-30T12:46:17;96608.50;;;26.58;38.28
30873;BME280;17579;42.690;2.586;2023-08-30T12:48:43;96607.09;;;26.50;38.57
30873;BME280;17579;42.690;2.586;2023-08-30T12:51:15;96601.44;;;26.57;39.12
30873;BME280;17579;42.690;2.586;2023-08-30T12:53:46;96609.94;;;26.71;38.41
30873;BME280;17579;42.690;2.586;2023-08-30T12:56:24;96608.31;;;26.75;38.05
30873;BME280;17579;42.690;2.586;2023-08-30T12:58:52;96602.13;;;26.79;37.90
30873;BME280;17579;42.690;2.586;2023-08-30T13:01:47;96607.84;;;26.88;38.24
30873;BME280;17579;42.690;2.586;2023-08-30T13:04:13;96600.56;;;27.04;37.84
30873;BME280;17579;42.690;2.586;2023-08-30T13:06:39;96585.94;;;27.21;36.82
30873;BME280;17579;42.690;2.586;2023-08-30T13:09:12;96600.38;;;27.37;37.07
30873;BME280;17579;42.690;2.586;2023-08-30T13:11:41;96594.69;;;27.64;37.05
30873;BME280;17579;42.690;2.586;2023-08-30T13:14:13;96592.53;;;27.92;36.30
30873;BME280;17579;42.690;2.586;2023-08-30T13:16:38;96580.28;;;28.20;35.71
30873;BME280;17579;42.690;2.586;2023-08-30T13:19:24;96574.75;;;28.56;35.14
30873;BME280;17579;42.690;2.586;2023-08-30T13:22:10;96585.81;;;28.80;34.53
30873;BME280;17579;42.690;2.586;2023-08-30T13:24:41;96589.09;;;28.82;33.97
30873;BME280;17579;42.690;2.586;2023-08-30T13:27:40;96588.25;;;28.92;34.60
30873;BME280;17579;42.690;2.586;2023-08-30T13:30:09;96586.81;;;29.05;33.78
30873;BME280;17579;42.690;2.586;2023-08-30T13:32:46;96590.63;;;29.04;34.24
30873;BME280;17579;42.690;2.586;2023-08-30T13:38:13;96590.22;;;29.31;34.39
30873;BME280;17579;42.690;2.586;2023-08-30T13:40:42;96600.31;;;29.31;33.68
30873;BME280;17579;42.690;2.586;2023-08-30T13:43:10;96583.34;;;29.39;33.71
30873;BME280;17579;42.690;2.586;2023-08-30T13:45:46;96592.06;;;29.41;34.25
30873;BME280;17579;42.690;2.586;2023-08-30T13:48:12;96609.22;;;29.42;33.45
30873;BME280;17579;42.690;2.586;2023-08-30T13:50:41;96605.78;;;29.26;34.09
30873;BME280;17579;42.690;2.586;2023-08-30T13:53:13;96613.38;;;29.29;34.16
30873;BME280;17579;42.690;2.586;2023-08-30T13:58:08;96634.03;;;29.35;33.44
30873;BME280;17579;42.690;2.586;2023-08-30T14:00:35;96642.78;;;29.32;33.64
30873;BME280;17579;42.690;2.586;2023-08-30T14:03:23;96640.31;;;29.35;33.65
30873;BME280;17579;42.690;2.586;2023-08-30T14:08:37;96640.34;;;29.30;33.58
30873;BME280;17579;42.690;2.586;2023-08-30T14:11:06;96634.94;;;29.15;33.80
30873;BME280;17579;42.690;2.586;2023-08-30T14:13:32;96627.34;;;29.12;34.23
30873;BME280;17579;42.690;2.586;2023-08-30T14:15:59;96635.78;;;29.10;33.65
30873;BME280;17579;42.690;2.586;2023-08-30T14:18:42;96617.06;;;28.98;34.07
30873;BME280;17579;42.690;2.586;2023-08-30T14:21:08;96630.44;;;28.90;33.78
30873;BME280;17579;42.690;2.586;2023-08-30T14:26:20;96619.66;;;28.64;34.40
30873;BME280;17579;42.690;2.586;2023-08-30T14:28:48;96601.72;;;28.42;34.49
30873;BME280;17579;42.690;2.586;2023-08-30T14:31:17;96611.81;;;28.26;35.01